sensor_id;sensor_type;location;lat;lon;timestamp;P1;durP1;ratioP1;P2;durP2;ratioP2
18443;SDS011;9350;53.176;8.194;2023-12-28T00:00:05;6.00;;;2.55;;
18443;SDS011;9350;53.176;8.194;2023-12-28T00:02:33;3.85;;;2.63;;
18443;SDS011;9350;53.176;8.194;2023-12-28T00:04:59;5.53;;;2.63;;
18443;SDS011;9350;53.176;8.194;2023-12-28T00:07:26;4.47;;;2.75;;
18443;SDS011;9350;53.176;8.194;2023-12-28T00:09:53;4.25;;;2.88;;
18443;SDS011;9350;53.176;8.194;2023-12-28T00:12:21;4.43;;;2.63;;
18443;SDS011;9350;53.176;8.194;2023-12-28T00:14:48;4.80;;;2.72;;
18443;SDS011;9350;53.176;8.194;2023-12-28T00:17:16;6.45;;;2.83;;
18443;SDS011;9350;53.176;8.194;2023-12-28T00:19:43;4.07;;;2.38;;
18443;SDS011;9350;53.176;8.194;2023-12-28T00:22:10;3.20;;;2.42;;
18443;SDS011;9350;53.176;8.194;2023-12-28T00:24:36;2.53;;;2.30;;
18443;SDS011;9350;53.176;8.194;2023-12-28T00:27:03;5.50;;;2.22;;
18443;SDS011;9350;53.176;8.194;2023-12-28T00:29:31;4.65;;;2.38;;
18443;SDS011;9350;53.176;8.194;2023-12-28T00:31:59;2.75;;;2.50;;
18443;SDS011;9350;53.176;8.194;2023-12-28T00:34:26;2.83;;;2.40;;
18443;SDS011;9350;53.176;8.194;2023-12-28T00:36:53;3.33;;;2.40;;
18443;SDS011;9350;53.176;8.194;2023-12-28T00:39:19;5.22;;;2.40;;
18443;SDS011;9350;53.176;8.194;2023-12-28T00:41:46;4.57;;;2.45;;
18443;SDS011;9350;53.176;8.194;2023-12-28T00:44:13;3.47;;;2.30;;
18443;SDS011;9350;53.176;8.194;2023-12-28T00:46:41;3.55;;;2.30;;
18443;SDS011;9350;53.176;8.194;2023-12-28T00:49:08;4.45;;;2.38;;
18443;SDS011;9350;53.176;8.194;2023-12-28T00:51:35;4.63;;;2.70;;
18443;SDS011;9350;53.176;8.194;2023-12-28T00:54:01;3.85;;;2.50;;
18443;SDS011;9350;53.176;8.194;2023-12-28T00:56:28;2.45;;;2.25;;
18443;SDS011;9350;53.176;8.194;2023-12-28T00:58:55;2.28;;;2.13;;
18443;SDS011;9350;53.176;8.194;2023-12-28T01:01:22;3.53;;;2.15;;
18443;SDS011;9350;53.176;8.194;2023-12-28T01:03:50;3.10;;;2.10;;
18443;SDS011;9350;53.176;8.194;2023-12-28T01:06:17;3.10;;;2.60;;
18443;SDS011;9350;53.176;8.194;2023-12-28T01:08:43;3.67;;;2.40;;
18443;SDS011;9350;53.176;8.194;2023-12-28T01:11:10;3.30;;;2.42;;
18443;SDS011;9350;53.176;8.194;2023-12-28T01:13:37;2.40;;;2.20;;
18443;SDS011;9350;53.176;8.194;2023-12-28T01:16:04;4.53;;;2.20;;
18443;SDS011;9350;53.176;8.194;2023-12-28T01:18:32;2.90;;;2.20;;
18443;SDS011;9350;53.176;8.194;2023-12-28T01:21:00;6.70;;;2.40;;
18443;SDS011;9350;53.176;8.194;2023-12-28T01:23:27;2.30;;;2.20;;
18443;SDS011;9350;53.176;8.194;2023-12-28T01:25:54;5.47;;;2.42;;
18443;SDS011;9350;53.176;8.194;2023-12-28T01:28:22;4.20;;;2.33;;
18443;SDS011;9350;53.176;8.194;2023-12-28T01:30:48;3.25;;;1.98;;
18443;SDS011;9350;53.176;8.194;2023-12-28T01:33:15;3.55;;;2.22;;
18443;SDS011;9350;53.176;8.194;2023-12-28T01:35:42;6.63;;;2.20;;
18443;SDS011;9350;53.176;8.194;2023-12-28T01:38:11;3.40;;;2.30;;
18443;SDS011;9350;53.176;8.194;2023-12-28T01:40:37;3.38;;;2.38;;
18443;SDS011;9350;53.176;8.194;2023-12-28T01:43:04;3.85;;;2.47;;
18443;SDS011;9350;53.176;8.194;2023-12-28T01:45:31;2.53;;;2.30;;
18443;SDS011;9350;53.176;8.194;2023-12-28T01:47:58;2.65;;;2.38;;
18443;SDS011;9350;53.176;8.194;2023-12-28T01:50:25;6.55;;;2.50;;
18443;SDS011;9350;53.176;8.194;2023-12-28T01:52:54;3.10;;;2.50;;
18443;SDS011;9350;53.176;8.194;2023-12-28T01:55:23;3.83;;;2.20;;
18443;SDS011;9350;53.176;8.194;2023-12-28T01:57:50;2.30;;;2.00;;
18443;SDS011;9350;53.176;8.194;2023-12-28T02:00:17;3.17;;;2.20;;
18443;SDS011;9350;53.176;8.194;2023-12-28T02:02:45;5.90;;;2.42;;
18443;SDS011;9350;53.176;8.194;2023-12-28T02:05:13;2.65;;;2.40;;
18443;SDS011;9350;53.176;8.194;2023-12-28T02:07:41;6.70;;;2.60;;
18443;SDS011;9350;53.176;8.194;2023-12-28T02:10:08;3.97;;;2.47;;
18443;SDS011;9350;53.176;8.194;2023-12-28T02:12:36;3.25;;;2.30;;
18443;SDS011;9350;53.176;8.194;2023-12-28T02:15:03;2.63;;;2.42;;
18443;SDS011;9350;53.176;8.194;2023-12-28T02:17:32;4.88;;;2.75;;
18443;SDS011;9350;53.176;8.194;2023-12-28T02:20:02;4.90;;;2.80;;
18443;SDS011;9350;53.176;8.194;2023-12-28T02:22:32;2.75;;;2.33;;
18443;SDS011;9350;53.176;8.194;2023-12-28T02:25:08;4.13;;;2.33;;
18443;SDS011;9350;53.176;8.194;2023-12-28T02:27:38;4.53;;;2.65;;
18443;SDS011;9350;53.176;8.194;2023-12-28T02:30:06;4.70;;;2.67;;
18443;SDS011;9350;53.176;8.194;2023-12-28T02:32:36;2.80;;;2.53;;
18443;SDS011;9350;53.176;8.194;2023-12-28T02:35:11;5.53;;;2.60;;
18443;SDS011;9350;53.176;8.194;2023-12-28T02:37:43;3.72;;;3.00;;
18443;SDS011;9350;53.176;8.194;2023-12-28T02:40:15;3.58;;;2.63;;
18443;SDS011;9350;53.176;8.194;2023-12-28T02:42:43;5.00;;;2.72;;
18443;SDS011;9350;53.176;8.194;2023-12-28T02:45:09;6.38;;;2.90;;
18443;SDS011;9350;53.176;8.194;2023-12-28T02:47:36;3.70;;;2.60;;
18443;SDS011;9350;53.176;8.194;2023-12-28T02:50:03;2.60;;;2.40;;
18443;SDS011;9350;53.176;8.194;2023-12-28T02:52:31;2.60;;;2.42;;
18443;SDS011;9350;53.176;8.194;2023-12-28T02:54:58;3.53;;;2.33;;
18443;SDS011;9350;53.176;8.194;2023-12-28T02:57:26;3.90;;;2.67;;
18443;SDS011;9350;53.176;8.194;2023-12-28T02:59:53;2.40;;;2.20;;
18443;SDS011;9350;53.176;8.194;2023-12-28T03:02:21;3.10;;;2.80;;
18443;SDS011;9350;53.176;8.194;2023-12-28T03:04:48;3.58;;;2.45;;
18443;SDS011;9350;53.176;8.194;2023-12-28T03:07:15;4.15;;;2.75;;
18443;SDS011;9350;53.176;8.194;2023-12-28T03:09:42;6.78;;;2.88;;
18443;SDS011;9350;53.176;8.194;2023-12-28T03:12:08;7.90;;;2.70;;
18443;SDS011;9350;53.176;8.194;2023-12-28T03:14:37;3.08;;;2.28;;
18443;SDS011;9350;53.176;8.194;2023-12-28T03:17:04;4.72;;;2.58;;
18443;SDS011;9350;53.176;8.194;2023-12-28T03:19:30;4.28;;;2.95;;
18443;SDS011;9350;53.176;8.194;2023-12-28T03:21:57;3.72;;;2.50;;
18443;SDS011;9350;53.176;8.194;2023-12-28T03:24:24;2.55;;;2.35;;
18443;SDS011;9350;53.176;8.194;2023-12-28T03:26:51;5.03;;;2.33;;
18443;SDS011;9350;53.176;8.194;2023-12-28T03:29:17;4.07;;;2.35;;
18443;SDS011;9350;53.176;8.194;2023-12-28T03:31:45;4.00;;;2.78;;
18443;SDS011;9350;53.176;8.194;2023-12-28T03:34:13;5.88;;;3.05;;
18443;SDS011;9350;53.176;8.194;2023-12-28T03:36:40;4.57;;;2.75;;
18443;SDS011;9350;53.176;8.194;2023-12-28T03:39:07;6.00;;;2.47;;
18443;SDS011;9350;53.176;8.194;2023-12-28T03:41:34;4.32;;;2.90;;
18443;SDS011;9350;53.176;8.194;2023-12-28T03:44:01;5.72;;;2.55;;
18443;SDS011;9350;53.176;8.194;2023-12-28T03:46:28;5.78;;;2.75;;
18443;SDS011;9350;53.176;8.194;2023-12-28T03:48:56;3.22;;;2.85;;
18443;SDS011;9350;53.176;8.194;2023-12-28T03:51:23;7.50;;;3.00;;
18443;SDS011;9350;53.176;8.194;2023-12-28T03:53:50;4.55;;;2.70;;
18443;SDS011;9350;53.176;8.194;2023-12-28T03:56:18;3.15;;;2.85;;
18443;SDS011;9350;53.176;8.194;2023-12-28T03:58:46;6.10;;;2.70;;
18443;SDS011;9350;53.176;8.194;2023-12-28T04:01:12;6.68;;;3.00;;
18443;SDS011;9350;53.176;8.194;2023-12-28T04:03:38;5.05;;;2.70;;
18443;SDS011;9350;53.176;8.194;2023-12-28T04:06:07;6.70;;;2.90;;
18443;SDS011;9350;53.176;8.194;2023-12-28T04:08:33;4.20;;;2.65;;
18443;SDS011;9350;53.176;8.194;2023-12-28T04:11:00;2.72;;;2.50;;
18443;SDS011;9350;53.176;8.194;2023-12-28T04:13:27;4.97;;;2.85;;
18443;SDS011;9350;53.176;8.194;2023-12-28T04:15:54;6.63;;;2.92;;
18443;SDS011;9350;53.176;8.194;2023-12-28T04:18:20;8.43;;;3.03;;
18443;SDS011;9350;53.176;8.194;2023-12-28T04:20:47;6.90;;;2.80;;
18443;SDS011;9350;53.176;8.194;2023-12-28T04:23:15;4.22;;;2.50;;
18443;SDS011;9350;53.176;8.194;2023-12-28T04:25:42;5.10;;;3.03;;
18443;SDS011;9350;53.176;8.194;2023-12-28T04:28:09;5.03;;;2.75;;
18443;SDS011;9350;53.176;8.194;2023-12-28T04:30:36;7.35;;;2.88;;
18443;SDS011;9350;53.176;8.194;2023-12-28T04:33:03;6.78;;;2.67;;
18443;SDS011;9350;53.176;8.194;2023-12-28T04:35:30;6.00;;;2.70;;
18443;SDS011;9350;53.176;8.194;2023-12-28T04:37:57;7.82;;;2.83;;
18443;SDS011;9350;53.176;8.194;2023-12-28T04:40:25;8.15;;;2.88;;
18443;SDS011;9350;53.176;8.194;2023-12-28T04:42:52;4.65;;;2.35;;
18443;SDS011;9350;53.176;8.194;2023-12-28T04:45:18;5.68;;;2.72;;
18443;SDS011;9350;53.176;8.194;2023-12-28T04:47:47;7.63;;;3.08;;
18443;SDS011;9350;53.176;8.194;2023-12-28T04:50:14;8.30;;;2.70;;
18443;SDS011;9350;53.176;8.194;2023-12-28T04:52:41;7.15;;;2.60;;
18443;SDS011;9350;53.176;8.194;2023-12-28T04:55:07;7.63;;;2.47;;
18443;SDS011;9350;53.176;8.194;2023-12-28T04:57:35;4.80;;;2.67;;
18443;SDS011;9350;53.176;8.194;2023-12-28T05:00:02;7.00;;;2.83;;
18443;SDS011;9350;53.176;8.194;2023-12-28T05:02:30;6.70;;;2.30;;
18443;SDS011;9350;53.176;8.194;2023-12-28T05:04:57;8.20;;;2.72;;
18443;SDS011;9350;53.176;8.194;2023-12-28T05:07:23;7.05;;;2.67;;
18443;SDS011;9350;53.176;8.194;2023-12-28T05:09:50;5.07;;;2.47;;
18443;SDS011;9350;53.176;8.194;2023-12-28T05:12:17;8.65;;;2.75;;
18443;SDS011;9350;53.176;8.194;2023-12-28T05:14:46;6.68;;;2.72;;
18443;SDS011;9350;53.176;8.194;2023-12-28T05:17:12;6.20;;;2.30;;
18443;SDS011;9350;53.176;8.194;2023-12-28T05:19:39;3.97;;;2.38;;
18443;SDS011;9350;53.176;8.194;2023-12-28T05:22:06;13.15;;;2.70;;
18443;SDS011;9350;53.176;8.194;2023-12-28T05:24:36;7.63;;;2.42;;
18443;SDS011;9350;53.176;8.194;2023-12-28T05:27:03;4.25;;;2.30;;
18443;SDS011;9350;53.176;8.194;2023-12-28T05:29:30;7.20;;;2.20;;
18443;SDS011;9350;53.176;8.194;2023-12-28T05:31:58;7.63;;;2.55;;
18443;SDS011;9350;53.176;8.194;2023-12-28T05:34:24;11.50;;;2.90;;
18443;SDS011;9350;53.176;8.194;2023-12-28T05:36:51;5.47;;;2.42;;
18443;SDS011;9350;53.176;8.194;2023-12-28T05:39:18;6.32;;;2.65;;
18443;SDS011;9350;53.176;8.194;2023-12-28T05:41:45;6.57;;;2.17;;
18443;SDS011;9350;53.176;8.194;2023-12-28T05:44:12;4.07;;;2.30;;
18443;SDS011;9350;53.176;8.194;2023-12-28T05:46:40;9.52;;;2.80;;
18443;SDS011;9350;53.176;8.194;2023-12-28T05:49:08;8.30;;;2.50;;
18443;SDS011;9350;53.176;8.194;2023-12-28T05:51:37;8.27;;;2.35;;
18443;SDS011;9350;53.176;8.194;2023-12-28T05:54:05;8.50;;;2.60;;
18443;SDS011;9350;53.176;8.194;2023-12-28T05:56:32;4.88;;;2.20;;
18443;SDS011;9350;53.176;8.194;2023-12-28T05:58:59;4.80;;;2.22;;
18443;SDS011;9350;53.176;8.194;2023-12-28T06:01:26;5.25;;;2.42;;
18443;SDS011;9350;53.176;8.194;2023-12-28T06:03:53;7.32;;;2.28;;
18443;SDS011;9350;53.176;8.194;2023-12-28T06:06:21;4.60;;;2.03;;
18443;SDS011;9350;53.176;8.194;2023-12-28T06:08:48;6.85;;;2.22;;
18443;SDS011;9350;53.176;8.194;2023-12-28T06:11:16;3.63;;;2.13;;
18443;SDS011;9350;53.176;8.194;2023-12-28T06:13:43;8.55;;;2.30;;
18443;SDS011;9350;53.176;8.194;2023-12-28T06:16:09;11.52;;;2.00;;
18443;SDS011;9350;53.176;8.194;2023-12-28T06:18:36;6.43;;;2.50;;
18443;SDS011;9350;53.176;8.194;2023-12-28T06:21:03;5.50;;;2.60;;
18443;SDS011;9350;53.176;8.194;2023-12-28T06:23:32;7.05;;;2.20;;
18443;SDS011;9350;53.176;8.194;2023-12-28T06:26:03;9.40;;;2.15;;
18443;SDS011;9350;53.176;8.194;2023-12-28T06:28:31;6.43;;;2.20;;
18443;SDS011;9350;53.176;8.194;2023-12-28T06:30:59;11.23;;;2.30;;
18443;SDS011;9350;53.176;8.194;2023-12-28T06:33:26;8.43;;;2.25;;
18443;SDS011;9350;53.176;8.194;2023-12-28T06:35:53;5.65;;;2.20;;
18443;SDS011;9350;53.176;8.194;2023-12-28T06:38:20;3.25;;;2.10;;
18443;SDS011;9350;53.176;8.194;2023-12-28T06:40:48;6.40;;;1.90;;
18443;SDS011;9350;53.176;8.194;2023-12-28T06:43:14;4.72;;;2.00;;
18443;SDS011;9350;53.176;8.194;2023-12-28T06:45:41;10.43;;;2.30;;
18443;SDS011;9350;53.176;8.194;2023-12-28T06:48:08;5.65;;;2.38;;
18443;SDS011;9350;53.176;8.194;2023-12-28T06:50:35;8.13;;;3.10;;
18443;SDS011;9350;53.176;8.194;2023-12-28T06:53:01;11.45;;;2.58;;
18443;SDS011;9350;53.176;8.194;2023-12-28T06:55:28;6.38;;;1.77;;
18443;SDS011;9350;53.176;8.194;2023-12-28T06:57:57;6.05;;;2.17;;
18443;SDS011;9350;53.176;8.194;2023-12-28T07:00:24;4.13;;;2.30;;
18443;SDS011;9350;53.176;8.194;2023-12-28T07:02:50;10.13;;;2.33;;
18443;SDS011;9350;53.176;8.194;2023-12-28T07:05:17;9.27;;;2.10;;
18443;SDS011;9350;53.176;8.194;2023-12-28T07:07:44;7.22;;;2.30;;
18443;SDS011;9350;53.176;8.194;2023-12-28T07:10:11;8.65;;;2.30;;
18443;SDS011;9350;53.176;8.194;2023-12-28T07:12:38;7.82;;;2.00;;
18443;SDS011;9350;53.176;8.194;2023-12-28T07:15:06;8.05;;;2.40;;
18443;SDS011;9350;53.176;8.194;2023-12-28T07:17:35;11.23;;;2.90;;
18443;SDS011;9350;53.176;8.194;2023-12-28T07:20:04;6.57;;;2.10;;
18443;SDS011;9350;53.176;8.194;2023-12-28T07:22:34;7.65;;;2.00;;
18443;SDS011;9350;53.176;8.194;2023-12-28T07:25:01;11.27;;;2.63;;
18443;SDS011;9350;53.176;8.194;2023-12-28T07:27:28;10.70;;;2.50;;
18443;SDS011;9350;53.176;8.194;2023-12-28T07:29:54;7.95;;;2.40;;
18443;SDS011;9350;53.176;8.194;2023-12-28T07:32:23;7.75;;;2.22;;
18443;SDS011;9350;53.176;8.194;2023-12-28T07:34:51;10.35;;;2.47;;
18443;SDS011;9350;53.176;8.194;2023-12-28T07:37:18;5.90;;;2.10;;
18443;SDS011;9350;53.176;8.194;2023-12-28T07:39:44;8.85;;;2.40;;
18443;SDS011;9350;53.176;8.194;2023-12-28T07:42:11;10.52;;;2.70;;
18443;SDS011;9350;53.176;8.194;2023-12-28T07:44:38;9.27;;;2.33;;
18443;SDS011;9350;53.176;8.194;2023-12-28T07:47:05;9.60;;;2.03;;
18443;SDS011;9350;53.176;8.194;2023-12-28T07:49:33;6.68;;;2.22;;
18443;SDS011;9350;53.176;8.194;2023-12-28T07:52:00;9.32;;;2.10;;
18443;SDS011;9350;53.176;8.194;2023-12-28T07:54:27;9.38;;;2.22;;
18443;SDS011;9350;53.176;8.194;2023-12-28T07:56:54;7.20;;;2.05;;
18443;SDS011;9350;53.176;8.194;2023-12-28T07:59:21;8.43;;;2.10;;
18443;SDS011;9350;53.176;8.194;2023-12-28T08:01:48;9.70;;;2.40;;
18443;SDS011;9350;53.176;8.194;2023-12-28T08:04:15;9.27;;;2.50;;
18443;SDS011;9350;53.176;8.194;2023-12-28T08:06:43;7.40;;;1.95;;
18443;SDS011;9350;53.176;8.194;2023-12-28T08:09:11;9.18;;;2.03;;
18443;SDS011;9350;53.176;8.194;2023-12-28T08:11:37;9.15;;;2.33;;
18443;SDS011;9350;53.176;8.194;2023-12-28T08:14:04;12.00;;;2.47;;
18443;SDS011;9350;53.176;8.194;2023-12-28T08:16:31;11.93;;;2.60;;
18443;SDS011;9350;53.176;8.194;2023-12-28T08:19:00;13.25;;;2.22;;
18443;SDS011;9350;53.176;8.194;2023-12-28T08:21:27;7.55;;;2.22;;
18443;SDS011;9350;53.176;8.194;2023-12-28T08:23:56;9.85;;;2.10;;
18443;SDS011;9350;53.176;8.194;2023-12-28T08:26:23;8.25;;;1.92;;
18443;SDS011;9350;53.176;8.194;2023-12-28T08:28:50;7.60;;;2.42;;
18443;SDS011;9350;53.176;8.194;2023-12-28T08:31:17;11.60;;;2.70;;
18443;SDS011;9350;53.176;8.194;2023-12-28T08:33:44;10.40;;;2.30;;
18443;SDS011;9350;53.176;8.194;2023-12-28T08:36:11;14.63;;;2.47;;
18443;SDS011;9350;53.176;8.194;2023-12-28T08:38:38;12.38;;;2.67;;
18443;SDS011;9350;53.176;8.194;2023-12-28T08:41:06;14.90;;;3.03;;
18443;SDS011;9350;53.176;8.194;2023-12-28T08:43:34;7.93;;;2.10;;
18443;SDS011;9350;53.176;8.194;2023-12-28T08:46:01;11.77;;;2.30;;
18443;SDS011;9350;53.176;8.194;2023-12-28T08:48:28;9.35;;;2.10;;
18443;SDS011;9350;53.176;8.194;2023-12-28T08:50:55;8.48;;;2.13;;
18443;SDS011;9350;53.176;8.194;2023-12-28T08:53:21;15.38;;;2.72;;
18443;SDS011;9350;53.176;8.194;2023-12-28T08:55:48;7.10;;;2.28;;
18443;SDS011;9350;53.176;8.194;2023-12-28T08:58:17;6.15;;;2.08;;
18443;SDS011;9350;53.176;8.194;2023-12-28T09:00:44;13.35;;;2.58;;
18443;SDS011;9350;53.176;8.194;2023-12-28T09:03:12;13.25;;;2.60;;
18443;SDS011;9350;53.176;8.194;2023-12-28T09:05:39;10.98;;;2.35;;
18443;SDS011;9350;53.176;8.194;2023-12-28T09:08:06;6.97;;;2.20;;
18443;SDS011;9350;53.176;8.194;2023-12-28T09:10:33;11.63;;;2.33;;
18443;SDS011;9350;53.176;8.194;2023-12-28T09:13:00;15.85;;;2.50;;
18443;SDS011;9350;53.176;8.194;2023-12-28T09:15:28;16.58;;;2.60;;
18443;SDS011;9350;53.176;8.194;2023-12-28T09:17:55;10.18;;;2.28;;
18443;SDS011;9350;53.176;8.194;2023-12-28T09:20:22;12.35;;;2.42;;
18443;SDS011;9350;53.176;8.194;2023-12-28T09:22:49;12.48;;;2.30;;
18443;SDS011;9350;53.176;8.194;2023-12-28T09:25:21;13.23;;;2.58;;
18443;SDS011;9350;53.176;8.194;2023-12-28T09:27:47;13.93;;;2.72;;
18443;SDS011;9350;53.176;8.194;2023-12-28T09:30:14;9.45;;;2.38;;
18443;SDS011;9350;53.176;8.194;2023-12-28T09:32:43;7.45;;;2.38;;
18443;SDS011;9350;53.176;8.194;2023-12-28T09:35:10;10.27;;;2.40;;
18443;SDS011;9350;53.176;8.194;2023-12-28T09:37:36;10.32;;;2.03;;
18443;SDS011;9350;53.176;8.194;2023-12-28T09:40:04;13.60;;;2.35;;
18443;SDS011;9350;53.176;8.194;2023-12-28T09:42:36;9.63;;;2.50;;
18443;SDS011;9350;53.176;8.194;2023-12-28T09:45:10;16.65;;;2.65;;
18443;SDS011;9350;53.176;8.194;2023-12-28T09:47:37;15.32;;;2.78;;
18443;SDS011;9350;53.176;8.194;2023-12-28T09:50:06;15.00;;;2.35;;
18443;SDS011;9350;53.176;8.194;2023-12-28T09:52:33;12.45;;;3.25;;
18443;SDS011;9350;53.176;8.194;2023-12-28T09:55:00;18.38;;;2.75;;
18443;SDS011;9350;53.176;8.194;2023-12-28T09:57:27;8.85;;;2.53;;
18443;SDS011;9350;53.176;8.194;2023-12-28T09:59:54;14.60;;;2.80;;
18443;SDS011;9350;53.176;8.194;2023-12-28T10:02:22;11.18;;;2.72;;
18443;SDS011;9350;53.176;8.194;2023-12-28T10:04:49;7.55;;;2.33;;
18443;SDS011;9350;53.176;8.194;2023-12-28T10:07:17;13.93;;;2.55;;
18443;SDS011;9350;53.176;8.194;2023-12-28T10:09:45;8.88;;;2.42;;
18443;SDS011;9350;53.176;8.194;2023-12-28T10:12:11;11.48;;;2.40;;
18443;SDS011;9350;53.176;8.194;2023-12-28T10:14:38;7.75;;;2.55;;
18443;SDS011;9350;53.176;8.194;2023-12-28T10:17:05;9.38;;;2.08;;
18443;SDS011;9350;53.176;8.194;2023-12-28T10:19:32;15.40;;;2.63;;
18443;SDS011;9350;53.176;8.194;2023-12-28T10:21:59;16.58;;;2.47;;
18443;SDS011;9350;53.176;8.194;2023-12-28T10:24:27;8.52;;;2.47;;
18443;SDS011;9350;53.176;8.194;2023-12-28T10:26:54;11.88;;;2.58;;
18443;SDS011;9350;53.176;8.194;2023-12-28T10:29:22;17.80;;;2.95;;
18443;SDS011;9350;53.176;8.194;2023-12-28T10:31:51;13.70;;;2.72;;
18443;SDS011;9350;53.176;8.194;2023-12-28T10:34:18;14.65;;;2.80;;
18443;SDS011;9350;53.176;8.194;2023-12-28T10:36:44;14.43;;;2.40;;
18443;SDS011;9350;53.176;8.194;2023-12-28T10:39:14;10.07;;;2.28;;
18443;SDS011;9350;53.176;8.194;2023-12-28T10:41:47;15.07;;;2.85;;
18443;SDS011;9350;53.176;8.194;2023-12-28T10:44:17;12.60;;;2.58;;
18443;SDS011;9350;53.176;8.194;2023-12-28T10:46:46;11.85;;;2.55;;
18443;SDS011;9350;53.176;8.194;2023-12-28T10:49:16;15.88;;;2.72;;
18443;SDS011;9350;53.176;8.194;2023-12-28T10:51:46;13.57;;;2.60;;
18443;SDS011;9350;53.176;8.194;2023-12-28T10:54:23;12.60;;;2.65;;
18443;SDS011;9350;53.176;8.194;2023-12-28T10:57:01;12.48;;;2.30;;
18443;SDS011;9350;53.176;8.194;2023-12-28T10:59:37;19.55;;;3.00;;
18443;SDS011;9350;53.176;8.194;2023-12-28T11:02:11;11.80;;;2.80;;
18443;SDS011;9350;53.176;8.194;2023-12-28T11:04:47;13.60;;;2.50;;
18443;SDS011;9350;53.176;8.194;2023-12-28T11:07:17;9.02;;;2.58;;
18443;SDS011;9350;53.176;8.194;2023-12-28T11:09:44;17.00;;;3.38;;
18443;SDS011;9350;53.176;8.194;2023-12-28T11:12:13;10.07;;;2.78;;
18443;SDS011;9350;53.176;8.194;2023-12-28T11:14:43;12.75;;;2.20;;
18443;SDS011;9350;53.176;8.194;2023-12-28T11:17:11;9.88;;;2.53;;
18443;SDS011;9350;53.176;8.194;2023-12-28T11:19:39;13.13;;;2.60;;
18443;SDS011;9350;53.176;8.194;2023-12-28T11:22:07;21.42;;;2.75;;
18443;SDS011;9350;53.176;8.194;2023-12-28T11:24:35;16.05;;;2.97;;
18443;SDS011;9350;53.176;8.194;2023-12-28T11:27:02;15.15;;;2.45;;
18443;SDS011;9350;53.176;8.194;2023-12-28T11:29:32;15.30;;;2.67;;
18443;SDS011;9350;53.176;8.194;2023-12-28T11:31:59;10.32;;;2.63;;
18443;SDS011;9350;53.176;8.194;2023-12-28T11:34:27;12.30;;;2.60;;
18443;SDS011;9350;53.176;8.194;2023-12-28T11:36:55;14.48;;;2.90;;
18443;SDS011;9350;53.176;8.194;2023-12-28T11:39:28;19.10;;;3.33;;
18443;SDS011;9350;53.176;8.194;2023-12-28T11:42:01;16.60;;;2.58;;
18443;SDS011;9350;53.176;8.194;2023-12-28T11:44:29;18.02;;;3.03;;
18443;SDS011;9350;53.176;8.194;2023-12-28T11:46:57;19.20;;;2.55;;
18443;SDS011;9350;53.176;8.194;2023-12-28T11:49:27;12.80;;;2.50;;
18443;SDS011;9350;53.176;8.194;2023-12-28T11:51:55;15.13;;;2.83;;
18443;SDS011;9350;53.176;8.194;2023-12-28T11:54:23;11.75;;;2.58;;
18443;SDS011;9350;53.176;8.194;2023-12-28T11:56:50;17.23;;;3.22;;
18443;SDS011;9350;53.176;8.194;2023-12-28T11:59:17;9.55;;;2.20;;
18443;SDS011;9350;53.176;8.194;2023-12-28T12:01:48;13.43;;;2.50;;
18443;SDS011;9350;53.176;8.194;2023-12-28T12:04:17;14.48;;;2.55;;
18443;SDS011;9350;53.176;8.194;2023-12-28T12:06:44;14.18;;;2.78;;
18443;SDS011;9350;53.176;8.194;2023-12-28T12:09:12;17.30;;;3.20;;
18443;SDS011;9350;53.176;8.194;2023-12-28T12:11:39;14.32;;;2.58;;
18443;SDS011;9350;53.176;8.194;2023-12-28T12:14:07;18.17;;;3.03;;
18443;SDS011;9350;53.176;8.194;2023-12-28T12:16:35;16.98;;;2.90;;
18443;SDS011;9350;53.176;8.194;2023-12-28T12:19:02;21.17;;;3.22;;
18443;SDS011;9350;53.176;8.194;2023-12-28T12:21:30;13.50;;;2.90;;
18443;SDS011;9350;53.176;8.194;2023-12-28T12:23:58;10.85;;;2.40;;
18443;SDS011;9350;53.176;8.194;2023-12-28T12:26:26;19.15;;;2.88;;
18443;SDS011;9350;53.176;8.194;2023-12-28T12:28:52;17.70;;;2.70;;
18443;SDS011;9350;53.176;8.194;2023-12-28T12:31:19;19.60;;;2.58;;
18443;SDS011;9350;53.176;8.194;2023-12-28T12:33:47;18.13;;;2.90;;
18443;SDS011;9350;53.176;8.194;2023-12-28T12:36:15;15.30;;;2.25;;
18443;SDS011;9350;53.176;8.194;2023-12-28T12:38:43;14.25;;;2.80;;
18443;SDS011;9350;53.176;8.194;2023-12-28T12:41:10;13.18;;;3.00;;
18443;SDS011;9350;53.176;8.194;2023-12-28T12:43:38;16.92;;;3.05;;
18443;SDS011;9350;53.176;8.194;2023-12-28T12:46:06;15.23;;;2.42;;
18443;SDS011;9350;53.176;8.194;2023-12-28T12:48:33;14.60;;;3.17;;
18443;SDS011;9350;53.176;8.194;2023-12-28T12:51:01;17.83;;;2.63;;
18443;SDS011;9350;53.176;8.194;2023-12-28T12:53:32;12.65;;;2.35;;
18443;SDS011;9350;53.176;8.194;2023-12-28T12:56:01;14.50;;;2.25;;
18443;SDS011;9350;53.176;8.194;2023-12-28T12:58:30;13.85;;;2.10;;
18443;SDS011;9350;53.176;8.194;2023-12-28T13:00:57;14.90;;;2.85;;
18443;SDS011;9350;53.176;8.194;2023-12-28T13:03:27;23.38;;;2.63;;
18443;SDS011;9350;53.176;8.194;2023-12-28T13:05:55;15.45;;;2.88;;
18443;SDS011;9350;53.176;8.194;2023-12-28T13:08:22;12.98;;;2.80;;
18443;SDS011;9350;53.176;8.194;2023-12-28T13:10:49;14.07;;;2.50;;
18443;SDS011;9350;53.176;8.194;2023-12-28T13:13:17;17.85;;;2.83;;
18443;SDS011;9350;53.176;8.194;2023-12-28T13:15:44;20.80;;;2.58;;
18443;SDS011;9350;53.176;8.194;2023-12-28T13:18:11;12.63;;;2.83;;
18443;SDS011;9350;53.176;8.194;2023-12-28T13:20:38;17.70;;;3.90;;
18443;SDS011;9350;53.176;8.194;2023-12-28T13:23:04;14.75;;;2.60;;
18443;SDS011;9350;53.176;8.194;2023-12-28T13:25:31;17.88;;;3.08;;
18443;SDS011;9350;53.176;8.194;2023-12-28T13:27:58;18.33;;;2.55;;
18443;SDS011;9350;53.176;8.194;2023-12-28T13:30:26;16.52;;;3.10;;
18443;SDS011;9350;53.176;8.194;2023-12-28T13:32:54;15.85;;;2.72;;
18443;SDS011;9350;53.176;8.194;2023-12-28T13:35:21;14.95;;;3.05;;
18443;SDS011;9350;53.176;8.194;2023-12-28T13:37:48;16.30;;;2.80;;
18443;SDS011;9350;53.176;8.194;2023-12-28T13:40:15;16.05;;;2.80;;
18443;SDS011;9350;53.176;8.194;2023-12-28T13:42:42;16.33;;;2.70;;
18443;SDS011;9350;53.176;8.194;2023-12-28T13:45:09;9.80;;;2.67;;
18443;SDS011;9350;53.176;8.194;2023-12-28T13:47:37;16.48;;;3.10;;
18443;SDS011;9350;53.176;8.194;2023-12-28T13:50:04;14.43;;;2.60;;
18443;SDS011;9350;53.176;8.194;2023-12-28T13:52:32;23.45;;;2.92;;
18443;SDS011;9350;53.176;8.194;2023-12-28T13:54:59;18.63;;;2.90;;
18443;SDS011;9350;53.176;8.194;2023-12-28T13:57:26;17.02;;;2.78;;
18443;SDS011;9350;53.176;8.194;2023-12-28T13:59:52;12.30;;;3.03;;
18443;SDS011;9350;53.176;8.194;2023-12-28T14:02:21;15.70;;;2.63;;
18443;SDS011;9350;53.176;8.194;2023-12-28T14:04:49;14.88;;;2.72;;
18443;SDS011;9350;53.176;8.194;2023-12-28T14:07:16;16.08;;;3.08;;
18443;SDS011;9350;53.176;8.194;2023-12-28T14:09:43;19.63;;;3.22;;
18443;SDS011;9350;53.176;8.194;2023-12-28T14:12:09;18.23;;;3.47;;
18443;SDS011;9350;53.176;8.194;2023-12-28T14:14:36;17.23;;;3.00;;
18443;SDS011;9350;53.176;8.194;2023-12-28T14:17:03;21.33;;;2.97;;
18443;SDS011;9350;53.176;8.194;2023-12-28T14:19:30;16.65;;;4.03;;
18443;SDS011;9350;53.176;8.194;2023-12-28T14:21:59;19.75;;;2.90;;
18443;SDS011;9350;53.176;8.194;2023-12-28T14:24:26;13.02;;;2.60;;
18443;SDS011;9350;53.176;8.194;2023-12-28T14:26:54;14.75;;;2.67;;
18443;SDS011;9350;53.176;8.194;2023-12-28T14:29:21;20.73;;;2.97;;
18443;SDS011;9350;53.176;8.194;2023-12-28T14:31:49;21.83;;;2.78;;
18443;SDS011;9350;53.176;8.194;2023-12-28T14:34:16;14.48;;;3.25;;
18443;SDS011;9350;53.176;8.194;2023-12-28T14:36:44;9.68;;;2.50;;
18443;SDS011;9350;53.176;8.194;2023-12-28T14:39:16;16.05;;;3.00;;
18443;SDS011;9350;53.176;8.194;2023-12-28T14:41:44;15.68;;;2.65;;
18443;SDS011;9350;53.176;8.194;2023-12-28T14:44:11;20.85;;;3.58;;
18443;SDS011;9350;53.176;8.194;2023-12-28T14:46:38;16.02;;;3.72;;
18443;SDS011;9350;53.176;8.194;2023-12-28T14:49:05;15.48;;;3.00;;
18443;SDS011;9350;53.176;8.194;2023-12-28T14:51:32;14.77;;;2.50;;
18443;SDS011;9350;53.176;8.194;2023-12-28T14:53:58;16.20;;;3.20;;
18443;SDS011;9350;53.176;8.194;2023-12-28T14:56:27;16.13;;;3.17;;